Terminal Aerodrome Forecast
Issued by NWS

Home | Current Version | Previous Version | Text Only | Print | Product List | Glossary On
Versions: 1 2 3 4 5 6 7 8 9 10 11 12
000
FTUS42 TJSJ 270540
TAFKPK
TAF
TKPK 270540Z 2706/2806 07011KT P6SM VCSH SCT018
     FM271130 06015KT P6SM FEW020
     FM272300 07011KT P6SM SCT018
      AMD NOT SKED TIL 271100=

USA.gov is the U.S. government's official web portal to all federal, state and local government web resources and services.